Time;durP1;ratioP1;P1;durP2;ratioP2;P2;SDS_P1;SDS_P2;PMS_P1;PMS_P2;Temp;Humidity;BMP_temperature;BMP_pressure;BME280_temperature;BME280_humidity;BME280_pressure;Samples;Min_cycle;Max_cycle;Signal;HPM_P1;HPM_P2
2022/10/16 00:01:30;;;;;;;2.85;1.40;;;;;;;;;;5073893;28;20016;-73
2022/10/16 00:03:56;;;;;;;3.38;1.98;;;;;;;;;;5049531;28;20017;-72
2022/10/16 00:06:21;;;;;;;3.80;1.50;;;;;;;;;;5054856;28;20017;-73
2022/10/16 00:08:47;;;;;;;4.43;1.73;;;;;;;;;;5073407;28;20043;-73
2022/10/16 00:11:14;;;;;;;4.35;1.42;;;;;;;;;;5068429;28;20020;-74
2022/10/16 00:13:40;;;;;;;3.63;1.85;;;;;;;;;;5089043;28;20067;-73
2022/10/16 00:16:06;;;;;;;3.47;1.73;;;;;;;;;;5055248;28;20033;-73
2022/10/16 00:18:31;;;;;;;6.10;2.10;;;;;;;;;;5052371;28;20019;-72
2022/10/16 00:21:01;;;;;;;7.88;1.35;;;;;;;;;;5055289;28;20012;-73
2022/10/16 00:23:26;;;;;;;3.90;1.30;;;;;;;;;;5055634;28;20040;-72
2022/10/16 00:25:59;;;;;;;6.83;1.67;;;;;;;;;;5052693;28;20109;-72
2022/10/16 00:28:24;;;;;;;5.25;1.65;;;;;;;;;;5048233;28;20267;-72
2022/10/16 00:30:50;;;;;;;5.93;1.30;;;;;;;;;;5072903;28;20082;-72
2022/10/16 00:33:15;;;;;;;6.63;2.33;;;;;;;;;;5055040;28;20025;-72
2022/10/16 00:35:40;;;;;;;8.13;1.60;;;;;;;;;;5054701;28;20028;-73
2022/10/16 00:38:05;;;;;;;3.43;1.63;;;;;;;;;;5073270;28;20490;-72
2022/10/16 00:40:31;;;;;;;7.13;2.00;;;;;;;;;;5072737;28;20294;-72
2022/10/16 00:42:56;;;;;;;3.85;1.75;;;;;;;;;;5048560;28;20012;-72
2022/10/16 00:45:22;;;;;;;4.07;1.80;;;;;;;;;;5054276;28;20062;-72
2022/10/16 00:47:49;;;;;;;3.63;1.50;;;;;;;;;;5054639;28;20520;-74
2022/10/16 00:50:28;;;;;;;4.22;1.52;;;;;;;;;;5068358;28;20070;-73
2022/10/16 00:52:54;;;;;;;3.70;1.65;;;;;;;;;;5072327;28;20025;-73
2022/10/16 00:55:20;;;;;;;3.08;1.30;;;;;;;;;;5069889;28;20479;-72
2022/10/16 00:57:46;;;;;;;5.47;1.77;;;;;;;;;;5072517;28;21464;-73
2022/10/16 01:00:14;;;;;;;2.92;1.23;;;;;;;;;;5061004;28;20012;-72
2022/10/16 01:02:39;;;;;;;6.07;2.00;;;;;;;;;;5072450;28;20070;-72
2022/10/16 01:05:05;;;;;;;4.75;1.85;;;;;;;;;;5072459;28;20024;-72
2022/10/16 01:07:30;;;;;;;6.90;1.70;;;;;;;;;;5073030;28;20483;-72
2022/10/16 01:10:04;;;;;;;2.47;1.00;;;;;;;;;;5053937;28;20012;-72
2022/10/16 01:12:36;;;;;;;6.60;1.83;;;;;;;;;;5072304;28;20282;-71
2022/10/16 01:15:21;;;;;;;10.50;2.83;;;;;;;;;;5072183;28;20135;-72
2022/10/16 01:17:49;;;;;;;5.13;2.00;;;;;;;;;;5033149;28;20039;-72
2022/10/16 01:20:21;;;;;;;5.30;2.65;;;;;;;;;;5013717;28;20056;-72
2022/10/16 01:23:05;;;;;;;4.60;1.77;;;;;;;;;;5053548;28;20020;-73
2022/10/16 01:25:43;;;;;;;4.63;1.80;;;;;;;;;;5060017;28;20020;-72
2022/10/16 01:28:09;;;;;;;8.63;2.33;;;;;;;;;;5054300;28;20025;-72
2022/10/16 01:30:35;;;;;;;3.83;1.77;;;;;;;;;;5072033;28;20082;-72
2022/10/16 01:33:19;;;;;;;4.25;1.73;;;;;;;;;;5072129;28;20451;-73
2022/10/16 01:35:52;;;;;;;7.55;2.15;;;;;;;;;;5078597;28;21558;-73
2022/10/16 01:38:35;;;;;;;4.82;1.52;;;;;;;;;;5071293;28;20554;-73
2022/10/16 01:41:07;;;;;;;7.07;1.60;;;;;;;;;;5072713;28;20013;-72
2022/10/16 01:43:37;;;;;;;3.42;1.55;;;;;;;;;;5052496;28;20021;-72
2022/10/16 01:46:03;;;;;;;3.72;1.58;;;;;;;;;;5053913;28;20550;-73
2022/10/16 01:48:29;;;;;;;4.35;1.65;;;;;;;;;;5072312;28;20095;-73
2022/10/16 01:51:00;;;;;;;4.05;2.08;;;;;;;;;;5087052;28;20019;-72
2022/10/16 01:53:26;;;;;;;3.63;2.05;;;;;;;;;;5053655;28;20483;-74
2022/10/16 01:55:53;;;;;;;5.45;2.30;;;;;;;;;;5052987;28;20116;-73
2022/10/16 01:58:18;;;;;;;6.60;2.00;;;;;;;;;;5054236;28;20008;-73
2022/10/16 02:00:45;;;;;;;10.70;1.50;;;;;;;;;;5053552;28;20016;-72
2022/10/16 02:03:12;;;;;;;4.35;1.65;;;;;;;;;;5077757;28;20013;-73
2022/10/16 02:05:40;;;;;;;10.00;2.80;;;;;;;;;;5057383;28;20040;-72
2022/10/16 02:08:06;;;;;;;7.72;1.35;;;;;;;;;;5085933;28;20359;-72
2022/10/16 02:10:32;;;;;;;4.63;1.65;;;;;;;;;;5075682;28;20027;-73
2022/10/16 02:13:02;;;;;;;5.70;2.00;;;;;;;;;;5065245;28;20028;-73
2022/10/16 02:15:28;;;;;;;3.05;1.45;;;;;;;;;;5092504;28;20497;-73
2022/10/16 02:17:53;;;;;;;5.47;1.83;;;;;;;;;;5075718;28;20016;-72
2022/10/16 02:20:22;;;;;;;5.05;1.70;;;;;;;;;;5056118;28;20059;-73
2022/10/16 02:22:49;;;;;;;6.53;1.58;;;;;;;;;;5069457;28;20030;-72
2022/10/16 02:25:21;;;;;;;6.30;1.95;;;;;;;;;;5096102;28;20069;-72
2022/10/16 02:27:55;;;;;;;5.80;1.75;;;;;;;;;;5078607;28;20019;-72
2022/10/16 02:30:24;;;;;;;7.70;1.95;;;;;;;;;;5062044;28;20468;-73
2022/10/16 02:32:50;;;;;;;6.32;1.65;;;;;;;;;;5056577;28;20378;-73
2022/10/16 02:35:17;;;;;;;3.67;1.42;;;;;;;;;;5076108;28;20021;-72
2022/10/16 02:37:42;;;;;;;3.88;1.33;;;;;;;;;;5074945;28;20031;-72
2022/10/16 02:40:08;;;;;;;2.83;1.35;;;;;;;;;;5075440;28;20024;-72
2022/10/16 02:42:34;;;;;;;4.03;1.20;;;;;;;;;;5075157;28;20023;-73
2022/10/16 02:45:00;;;;;;;2.70;1.38;;;;;;;;;;5057506;28;20468;-73
2022/10/16 02:47:25;;;;;;;2.47;1.33;;;;;;;;;;5074777;28;20020;-73
2022/10/16 02:49:50;;;;;;;4.30;1.55;;;;;;;;;;5057059;28;20432;-73
2022/10/16 02:52:15;;;;;;;3.92;1.45;;;;;;;;;;5056979;28;20075;-74
2022/10/16 02:54:40;;;;;;;5.40;1.70;;;;;;;;;;5057025;28;20066;-73
2022/10/16 02:57:06;;;;;;;4.13;1.85;;;;;;;;;;5056804;28;20286;-73
2022/10/16 02:59:31;;;;;;;3.28;1.35;;;;;;;;;;5056627;28;20021;-74
2022/10/16 03:01:56;;;;;;;2.60;1.20;;;;;;;;;;5056845;28;20062;-74
2022/10/16 03:04:21;;;;;;;3.97;1.50;;;;;;;;;;5074585;28;20267;-73
2022/10/16 03:06:47;;;;;;;5.67;1.67;;;;;;;;;;5074040;28;20032;-73
2022/10/16 03:09:12;;;;;;;2.33;1.07;;;;;;;;;;5056879;28;20281;-73
2022/10/16 03:11:37;;;;;;;2.00;1.10;;;;;;;;;;5056595;28;20358;-73
2022/10/16 03:14:02;;;;;;;6.87;1.80;;;;;;;;;;5024542;28;20382;-73
2022/10/16 03:16:27;;;;;;;2.67;1.37;;;;;;;;;;5081410;28;20720;-73
2022/10/16 03:18:53;;;;;;;3.60;1.47;;;;;;;;;;5056426;28;20378;-73
2022/10/16 03:21:18;;;;;;;2.25;1.42;;;;;;;;;;5074209;28;20313;-73
2022/10/16 03:23:43;;;;;;;4.30;1.73;;;;;;;;;;5074479;28;20017;-73
2022/10/16 03:26:08;;;;;;;5.68;1.67;;;;;;;;;;5056155;28;20278;-73
2022/10/16 03:28:34;;;;;;;3.13;1.50;;;;;;;;;;5056287;28;20021;-73
2022/10/16 03:30:59;;;;;;;7.03;2.20;;;;;;;;;;5055435;28;20362;-72
2022/10/16 03:33:24;;;;;;;4.57;1.33;;;;;;;;;;5074119;28;20393;-73
2022/10/16 03:35:53;;;;;;;3.00;1.10;;;;;;;;;;5055950;28;20362;-72
2022/10/16 03:38:19;;;;;;;5.32;1.55;;;;;;;;;;5060615;28;20541;-71
2022/10/16 03:40:44;;;;;;;4.22;1.60;;;;;;;;;;5073903;28;20055;-72
2022/10/16 03:43:09;;;;;;;7.83;2.13;;;;;;;;;;5058958;28;20125;-71
2022/10/16 03:45:34;;;;;;;9.67;1.83;;;;;;;;;;5073419;28;20275;-73
2022/10/16 03:47:59;;;;;;;7.80;2.08;;;;;;;;;;5072640;28;20275;-72
2022/10/16 03:50:25;;;;;;;3.20;1.90;;;;;;;;;;5073581;28;20066;-72
2022/10/16 03:52:50;;;;;;;4.60;1.60;;;;;;;;;;5046869;28;20318;-73
2022/10/16 03:55:15;;;;;;;3.78;1.88;;;;;;;;;;5073653;28;20282;-73
2022/10/16 03:57:41;;;;;;;3.53;1.58;;;;;;;;;;5073867;28;20027;-72
2022/10/16 04:00:06;;;;;;;4.20;2.08;;;;;;;;;;5073377;28;20418;-73
2022/10/16 04:02:31;;;;;;;4.20;1.60;;;;;;;;;;5055957;28;20024;-72
2022/10/16 04:04:57;;;;;;;4.45;1.65;;;;;;;;;;5087209;28;20016;-72
2022/10/16 04:07:22;;;;;;;5.20;2.08;;;;;;;;;;5073553;28;20036;-72
2022/10/16 04:09:47;;;;;;;5.68;2.30;;;;;;;;;;5086908;28;20022;-73
2022/10/16 04:12:12;;;;;;;4.32;1.95;;;;;;;;;;5055506;28;20070;-73
2022/10/16 04:14:37;;;;;;;5.28;2.08;;;;;;;;;;5050651;28;20028;-73
2022/10/16 04:17:03;;;;;;;5.47;2.23;;;;;;;;;;5055265;28;20066;-72
2022/10/16 04:19:28;;;;;;;5.97;2.43;;;;;;;;;;5073235;28;20320;-72
2022/10/16 04:21:53;;;;;;;4.13;2.03;;;;;;;;;;5073102;28;20271;-73
2022/10/16 04:24:18;;;;;;;7.00;2.03;;;;;;;;;;5072936;28;20263;-73
2022/10/16 04:26:43;;;;;;;4.10;2.07;;;;;;;;;;5052400;28;20279;-72
2022/10/16 04:29:09;;;;;;;6.33;2.07;;;;;;;;;;5071719;28;20332;-73
2022/10/16 04:31:34;;;;;;;5.15;2.42;;;;;;;;;;5062676;28;20274;-73
2022/10/16 04:33:59;;;;;;;8.45;2.65;;;;;;;;;;5072731;28;20096;-73
2022/10/16 04:36:24;;;;;;;5.88;2.40;;;;;;;;;;5055328;28;20463;-73
2022/10/16 04:38:50;;;;;;;14.73;2.90;;;;;;;;;;5052904;28;20376;-72
2022/10/16 04:41:15;;;;;;;8.67;3.27;;;;;;;;;;5053412;28;20024;-72
2022/10/16 04:43:40;;;;;;;5.95;2.45;;;;;;;;;;5068320;28;20290;-72
2022/10/16 04:46:05;;;;;;;4.43;2.58;;;;;;;;;;5054392;28;20051;-72
2022/10/16 04:48:31;;;;;;;5.78;2.40;;;;;;;;;;5072728;28;20024;-72
2022/10/16 04:50:56;;;;;;;6.05;2.80;;;;;;;;;;5087983;28;20020;-73
2022/10/16 04:53:21;;;;;;;4.90;3.08;;;;;;;;;;5054889;28;20036;-73
2022/10/16 04:55:47;;;;;;;7.30;2.67;;;;;;;;;;5072746;28;20028;-73
2022/10/16 04:58:12;;;;;;;4.45;2.85;;;;;;;;;;5072355;28;20025;-73
2022/10/16 05:00:38;;;;;;;5.60;2.88;;;;;;;;;;5087956;28;20024;-72
2022/10/16 05:03:07;;;;;;;5.78;2.55;;;;;;;;;;5072438;28;20132;-73
2022/10/16 05:05:32;;;;;;;3.70;2.65;;;;;;;;;;5069035;28;20467;-73
2022/10/16 05:07:57;;;;;;;4.03;2.50;;;;;;;;;;5072906;28;20016;-72
2022/10/16 05:10:23;;;;;;;5.00;3.28;;;;;;;;;;5054093;28;20554;-72
2022/10/16 05:12:48;;;;;;;4.43;3.00;;;;;;;;;;5072489;28;20013;-72
2022/10/16 05:15:13;;;;;;;3.85;2.58;;;;;;;;;;5069047;28;20074;-73
2022/10/16 05:17:39;;;;;;;7.38;3.45;;;;;;;;;;5051429;28;20020;-73
2022/10/16 05:20:04;;;;;;;4.88;3.20;;;;;;;;;;5071879;28;20048;-72
2022/10/16 05:22:29;;;;;;;15.80;3.03;;;;;;;;;;5086927;28;20032;-72
2022/10/16 05:24:55;;;;;;;7.20;3.33;;;;;;;;;;5072036;28;20528;-72
2022/10/16 05:27:20;;;;;;;9.55;3.53;;;;;;;;;;5067389;28;20017;-73
2022/10/16 05:29:46;;;;;;;6.27;3.47;;;;;;;;;;5054297;28;20021;-73
2022/10/16 05:32:12;;;;;;;6.20;3.33;;;;;;;;;;5053983;28;20287;-72
2022/10/16 05:34:37;;;;;;;10.20;3.38;;;;;;;;;;5071295;28;20048;-72
2022/10/16 05:37:02;;;;;;;4.90;3.87;;;;;;;;;;5071864;28;20064;-73
2022/10/16 05:39:27;;;;;;;7.87;3.40;;;;;;;;;;5074857;28;20266;-73
2022/10/16 05:41:53;;;;;;;6.47;3.85;;;;;;;;;;5075183;28;20364;-73
2022/10/16 05:44:18;;;;;;;7.40;4.33;;;;;;;;;;5056236;28;20024;-68
2022/10/16 05:46:43;;;;;;;7.20;3.87;;;;;;;;;;5076023;28;20282;-69
2022/10/16 05:49:08;;;;;;;7.30;4.80;;;;;;;;;;5075958;28;20279;-70
2022/10/16 05:51:34;;;;;;;8.07;4.38;;;;;;;;;;5072314;28;20024;-69
2022/10/16 05:53:59;;;;;;;5.93;4.60;;;;;;;;;;5075547;28;20547;-68
2022/10/16 05:56:24;;;;;;;6.22;4.43;;;;;;;;;;5078038;28;20098;-69
2022/10/16 05:58:49;;;;;;;5.65;4.10;;;;;;;;;;5075959;28;20021;-69
2022/10/16 06:01:16;;;;;;;8.75;4.65;;;;;;;;;;5075247;28;20052;-70
2022/10/16 06:03:41;;;;;;;6.88;4.22;;;;;;;;;;5075601;28;20017;-71
2022/10/16 06:06:07;;;;;;;6.43;4.63;;;;;;;;;;5056961;28;20017;-72
2022/10/16 06:08:33;;;;;;;6.88;5.40;;;;;;;;;;5074746;28;20020;-69
2022/10/16 06:11:05;;;;;;;11.75;5.18;;;;;;;;;;5076330;28;20498;-71
2022/10/16 06:13:31;;;;;;;7.45;4.85;;;;;;;;;;5075528;28;20037;-71
2022/10/16 06:15:57;;;;;;;8.80;4.97;;;;;;;;;;5070096;28;20384;-71
2022/10/16 06:18:22;;;;;;;7.25;4.63;;;;;;;;;;5091150;28;20028;-72
2022/10/16 06:20:47;;;;;;;8.45;4.80;;;;;;;;;;5075070;28;20081;-73
2022/10/16 06:23:12;;;;;;;9.50;4.45;;;;;;;;;;5075816;28;20021;-74
2022/10/16 06:25:38;;;;;;;8.07;4.43;;;;;;;;;;5070996;28;20012;-73
2022/10/16 06:28:03;;;;;;;11.60;4.47;;;;;;;;;;5075278;28;20263;-73
2022/10/16 06:30:28;;;;;;;6.35;4.32;;;;;;;;;;5071197;28;20270;-73
2022/10/16 06:32:53;;;;;;;5.80;3.60;;;;;;;;;;5063697;28;20017;-73
2022/10/16 06:35:19;;;;;;;6.70;4.57;;;;;;;;;;5075592;28;20109;-70
2022/10/16 06:37:44;;;;;;;6.57;3.85;;;;;;;;;;5074711;28;20367;-71
2022/10/16 06:40:09;;;;;;;7.37;4.10;;;;;;;;;;5075026;28;20102;-71
2022/10/16 06:42:34;;;;;;;6.55;3.92;;;;;;;;;;5087941;28;20316;-74
2022/10/16 06:45:01;;;;;;;6.70;4.20;;;;;;;;;;5063483;28;20044;-72
2022/10/16 06:47:26;;;;;;;8.43;4.00;;;;;;;;;;5074745;28;20270;-72
2022/10/16 06:49:52;;;;;;;9.75;4.00;;;;;;;;;;5090265;28;20032;-72
2022/10/16 06:52:17;;;;;;;7.23;4.33;;;;;;;;;;5064086;28;20107;-72
2022/10/16 06:54:42;;;;;;;5.55;3.70;;;;;;;;;;5082568;28;20279;-72
2022/10/16 06:57:07;;;;;;;6.83;4.20;;;;;;;;;;5055884;28;20047;-72
2022/10/16 06:59:33;;;;;;;13.13;4.20;;;;;;;;;;5058394;28;20310;-73
2022/10/16 07:01:58;;;;;;;11.93;4.53;;;;;;;;;;5057651;28;20065;-73
2022/10/16 07:04:23;;;;;;;8.20;4.03;;;;;;;;;;5074724;28;20267;-72
2022/10/16 07:06:48;;;;;;;7.70;3.63;;;;;;;;;;5056491;28;20852;-73
2022/10/16 07:09:13;;;;;;;6.70;4.40;;;;;;;;;;5056827;28;20800;-72
2022/10/16 07:11:39;;;;;;;7.13;4.82;;;;;;;;;;5074692;28;20043;-72
2022/10/16 07:14:05;;;;;;;5.50;3.97;;;;;;;;;;5056322;28;20017;-72
2022/10/16 07:16:31;;;;;;;7.07;3.80;;;;;;;;;;5056608;28;20109;-72
2022/10/16 07:18:58;;;;;;;5.70;4.00;;;;;;;;;;5056131;28;20078;-72
2022/10/16 07:21:25;;;;;;;11.52;5.10;;;;;;;;;;5074616;28;20039;-71
2022/10/16 07:23:54;;;;;;;6.13;4.63;;;;;;;;;;5056392;28;20071;-72
2022/10/16 07:26:20;;;;;;;13.02;4.93;;;;;;;;;;5056653;28;20079;-72
2022/10/16 07:28:45;;;;;;;9.20;4.68;;;;;;;;;;5074317;28;20012;-72
2022/10/16 07:31:13;;;;;;;7.10;4.35;;;;;;;;;;5074413;28;20085;-73
2022/10/16 07:33:39;;;;;;;8.15;3.88;;;;;;;;;;5074090;28;20028;-71
2022/10/16 07:36:05;;;;;;;6.13;4.38;;;;;;;;;;5055347;28;20044;-72
2022/10/16 07:38:30;;;;;;;8.80;4.43;;;;;;;;;;5074499;28;20119;-72
2022/10/16 07:40:59;;;;;;;6.45;3.72;;;;;;;;;;5055706;28;20019;-72
2022/10/16 07:43:25;;;;;;;5.65;3.40;;;;;;;;;;5061825;28;20082;-72
2022/10/16 07:45:50;;;;;;;5.07;3.10;;;;;;;;;;5073129;28;20456;-73
2022/10/16 07:48:16;;;;;;;9.90;3.90;;;;;;;;;;5073669;28;20069;-73
2022/10/16 07:50:42;;;;;;;5.85;3.25;;;;;;;;;;5055845;28;20013;-73
2022/10/16 07:53:07;;;;;;;5.85;3.47;;;;;;;;;;5055923;28;20016;-71
2022/10/16 07:55:32;;;;;;;8.57;3.10;;;;;;;;;;5073819;28;20031;-72
2022/10/16 07:57:58;;;;;;;8.27;3.60;;;;;;;;;;5055082;28;20386;-72
2022/10/16 08:00:23;;;;;;;7.20;3.27;;;;;;;;;;5055611;28;20336;-72
2022/10/16 08:02:48;;;;;;;6.45;2.80;;;;;;;;;;5073388;28;20266;-72
2022/10/16 08:05:14;;;;;;;4.77;2.40;;;;;;;;;;5055194;28;20012;-72
2022/10/16 08:07:39;;;;;;;3.63;2.05;;;;;;;;;;5073663;28;20311;-73
2022/10/16 08:10:04;;;;;;;6.37;2.37;;;;;;;;;;5053504;28;20368;-71
2022/10/16 08:12:30;;;;;;;5.95;2.33;;;;;;;;;;5073551;28;20287;-72
2022/10/16 08:14:55;;;;;;;4.20;1.80;;;;;;;;;;5073180;28;20020;-72
2022/10/16 08:17:20;;;;;;;3.67;1.63;;;;;;;;;;5074761;28;20496;-72
2022/10/16 08:19:47;;;;;;;3.72;1.90;;;;;;;;;;5073114;28;20052;-73
2022/10/16 08:22:12;;;;;;;5.05;1.60;;;;;;;;;;5072871;28;20013;-73
2022/10/16 08:24:37;;;;;;;2.63;1.75;;;;;;;;;;5063326;28;20077;-72
2022/10/16 08:27:03;;;;;;;3.00;1.47;;;;;;;;;;5090470;28;20067;-72
2022/10/16 08:29:28;;;;;;;4.40;1.80;;;;;;;;;;5067898;28;20352;-73
2022/10/16 08:31:53;;;;;;;5.00;1.83;;;;;;;;;;5072754;28;20059;-73
2022/10/16 08:34:18;;;;;;;3.67;1.80;;;;;;;;;;5054451;28;20021;-72
2022/10/16 08:36:44;;;;;;;8.38;2.60;;;;;;;;;;5072812;28;20819;-72
2022/10/16 08:39:09;;;;;;;4.97;2.47;;;;;;;;;;5071063;28;20020;-73
2022/10/16 08:41:53;;;;;;;4.72;2.00;;;;;;;;;;5041251;28;20263;-72
2022/10/16 08:44:29;;;;;;;12.80;2.75;;;;;;;;;;5076815;28;20012;-73
2022/10/16 08:46:58;;;;;;;4.95;1.75;;;;;;;;;;5054458;28;20020;-73
2022/10/16 08:49:24;;;;;;;4.22;1.60;;;;;;;;;;5073172;28;20052;-72
2022/10/16 08:51:50;;;;;;;5.40;1.38;;;;;;;;;;5054369;28;20422;-71
2022/10/16 08:54:18;;;;;;;3.90;1.23;;;;;;;;;;5072226;28;20024;-72
2022/10/16 08:56:44;;;;;;;4.15;1.77;;;;;;;;;;5069066;28;20028;-71
2022/10/16 08:59:13;;;;;;;3.80;1.37;;;;;;;;;;5072395;28;20084;-72
2022/10/16 09:01:40;;;;;;;5.38;2.15;;;;;;;;;;5072330;28;20311;-71
2022/10/16 09:04:11;;;;;;;4.32;1.60;;;;;;;;;;5064559;28;20035;-72
2022/10/16 09:06:44;;;;;;;5.63;2.20;;;;;;;;;;5062032;28;20178;-72
2022/10/16 09:09:09;;;;;;;4.78;1.25;;;;;;;;;;5071214;28;20101;-72
2022/10/16 09:11:53;;;;;;;3.15;1.40;;;;;;;;;;5072854;28;20063;-72
2022/10/16 09:14:37;;;;;;;3.80;1.50;;;;;;;;;;5056144;28;20028;-73
2022/10/16 09:17:20;;;;;;;3.87;1.47;;;;;;;;;;5069156;28;20078;-72
2022/10/16 09:19:53;;;;;;;4.78;1.73;;;;;;;;;;5073668;28;20362;-72
2022/10/16 09:22:22;;;;;;;8.88;1.42;;;;;;;;;;5083275;28;20466;-72
2022/10/16 09:24:47;;;;;;;4.03;1.20;;;;;;;;;;5072050;28;20020;-72
2022/10/16 09:27:14;;;;;;;4.03;1.17;;;;;;;;;;5072296;28;20031;-72
2022/10/16 09:29:40;;;;;;;9.63;1.65;;;;;;;;;;5070234;28;20389;-72
2022/10/16 09:32:15;;;;;;;7.00;1.02;;;;;;;;;;5072251;28;20135;-72
2022/10/16 09:34:43;;;;;;;4.95;1.20;;;;;;;;;;5075471;28;20025;-72
2022/10/16 09:37:10;;;;;;;3.17;1.17;;;;;;;;;;5078219;28;20095;-72
2022/10/16 09:39:49;;;;;;;4.35;1.65;;;;;;;;;;5072149;28;20044;-72
2022/10/16 09:42:26;;;;;;;5.57;1.55;;;;;;;;;;5069653;28;20044;-72
2022/10/16 09:44:53;;;;;;;3.65;1.48;;;;;;;;;;5065380;28;20048;-71
2022/10/16 09:47:20;;;;;;;5.93;1.33;;;;;;;;;;5071148;28;20070;-73
2022/10/16 09:49:55;;;;;;;3.72;1.42;;;;;;;;;;5072268;28;20020;-73
2022/10/16 09:52:20;;;;;;;2.75;1.05;;;;;;;;;;5071128;28;20028;-73
2022/10/16 09:54:49;;;;;;;4.47;1.38;;;;;;;;;;5070046;28;20028;-73
2022/10/16 09:57:14;;;;;;;2.78;1.25;;;;;;;;;;5068626;28;20021;-73
2022/10/16 09:59:50;;;;;;;8.02;1.55;;;;;;;;;;5075014;28;20439;-73
2022/10/16 10:02:17;;;;;;;2.38;1.00;;;;;;;;;;5069617;28;20219;-72
2022/10/16 10:04:47;;;;;;;5.85;1.38;;;;;;;;;;5071029;28;20013;-69
2022/10/16 10:07:18;;;;;;;2.90;1.23;;;;;;;;;;5071952;28;20017;-70
2022/10/16 10:09:44;;;;;;;3.25;1.25;;;;;;;;;;5060078;28;20024;-68
2022/10/16 10:12:18;;;;;;;6.50;1.35;;;;;;;;;;5070084;28;20076;-69
2022/10/16 10:14:43;;;;;;;;;;;;;;;;;;5057687;28;20063;-70
2022/10/16 10:17:10;;;;;;;3.92;1.30;;;;;;;;;;5087471;28;19941;-69
2022/10/16 10:19:40;;;;;;;9.68;1.85;;;;;;;;;;5071827;28;20031;-67
2022/10/16 10:22:25;;;;;;;6.05;1.88;;;;;;;;;;5071012;28;20368;-65
2022/10/16 10:24:54;;;;;;;4.03;1.38;;;;;;;;;;5072671;28;20033;-65
2022/10/16 10:27:21;;;;;;;5.53;1.85;;;;;;;;;;5074890;28;20081;-65
2022/10/16 10:30:08;;;;;;;3.53;1.50;;;;;;;;;;5074101;28;20063;-64
2022/10/16 10:32:45;;;;;;;6.18;1.30;;;;;;;;;;5056605;28;20052;-65
2022/10/16 10:35:21;;;;;;;4.93;1.88;;;;;;;;;;5078592;28;20028;-65
2022/10/16 10:37:46;;;;;;;5.20;2.13;;;;;;;;;;5075543;28;20036;-69
2022/10/16 10:40:31;;;;;;;11.10;1.73;;;;;;;;;;5071485;28;20016;-70
2022/10/16 10:43:03;;;;;;;3.88;1.50;;;;;;;;;;5062347;28;20044;-70
2022/10/16 10:45:41;;;;;;;4.20;1.67;;;;;;;;;;5074541;28;20487;-70
2022/10/16 10:48:10;;;;;;;4.65;1.75;;;;;;;;;;5040091;28;20507;-71
2022/10/16 10:50:35;;;;;;;6.30;2.00;;;;;;;;;;5056915;28;20463;-71
2022/10/16 10:53:04;;;;;;;2.67;1.00;;;;;;;;;;5056634;28;20052;-67
2022/10/16 10:55:29;;;;;;;4.40;1.83;;;;;;;;;;5057578;28;20286;-64
2022/10/16 10:58:09;;;;;;;3.37;1.50;;;;;;;;;;5057040;28;20036;-65
2022/10/16 11:00:35;;;;;;;4.15;1.67;;;;;;;;;;5055093;28;20866;-67
2022/10/16 11:03:06;;;;;;;3.77;1.40;;;;;;;;;;5057809;28;20166;-70
2022/10/16 11:05:40;;;;;;;3.50;1.20;;;;;;;;;;5043085;28;20013;-68
2022/10/16 11:08:20;;;;;;;3.55;1.30;;;;;;;;;;5035531;28;20477;-67
2022/10/16 11:10:45;;;;;;;9.45;1.27;;;;;;;;;;5042596;28;20020;-73
2022/10/16 11:13:17;;;;;;;5.15;1.88;;;;;;;;;;5028863;28;20021;-73
2022/10/16 11:15:43;;;;;;;5.32;1.60;;;;;;;;;;5043811;28;20094;-75
2022/10/16 11:18:17;;;;;;;6.22;1.75;;;;;;;;;;5034985;28;20136;-74
2022/10/16 11:20:54;;;;;;;5.22;1.08;;;;;;;;;;5049373;28;20020;-72
2022/10/16 11:23:28;;;;;;;2.15;1.08;;;;;;;;;;5036830;28;20124;-72
2022/10/16 11:25:56;;;;;;;4.15;1.60;;;;;;;;;;5029592;28;20024;-72
2022/10/16 11:28:32;;;;;;;3.42;1.25;;;;;;;;;;5039247;28;20447;-72
2022/10/16 11:31:19;;;;;;;5.22;1.17;;;;;;;;;;5030161;28;20024;-72
2022/10/16 11:33:59;;;;;;;2.90;1.05;;;;;;;;;;5034112;28;20016;-72
2022/10/16 11:36:32;;;;;;;3.90;1.67;;;;;;;;;;5031200;28;20029;-72
2022/10/16 11:39:10;;;;;;;2.40;0.90;;;;;;;;;;5032830;28;20020;-72
2022/10/16 11:41:54;;;;;;;7.88;0.98;;;;;;;;;;5037978;28;20033;-69
2022/10/16 11:44:36;;;;;;;2.17;1.02;;;;;;;;;;5046899;28;20024;-70
2022/10/16 11:47:07;;;;;;;1.80;0.90;;;;;;;;;;5044016;28;20017;-70
2022/10/16 11:49:33;;;;;;;3.00;1.45;;;;;;;;;;5047446;28;20020;-69
2022/10/16 11:52:04;;;;;;;2.88;1.10;;;;;;;;;;5046806;28;20023;-72
2022/10/16 11:54:50;;;;;;;4.07;1.17;;;;;;;;;;5046041;28;20032;-72
2022/10/16 11:57:18;;;;;;;3.25;1.02;;;;;;;;;;5016366;28;20124;-71
2022/10/16 11:59:43;;;;;;;3.30;1.00;;;;;;;;;;5026818;28;20020;-72
2022/10/16 12:02:27;;;;;;;6.50;1.10;;;;;;;;;;5025178;28;20035;-72
2022/10/16 12:05:02;;;;;;;2.17;1.00;;;;;;;;;;5057856;28;20279;-72
2022/10/16 12:07:32;;;;;;;2.90;1.23;;;;;;;;;;5040619;28;20067;-68
2022/10/16 12:10:00;;;;;;;3.80;1.30;;;;;;;;;;5045417;28;20032;-73
2022/10/16 12:12:25;;;;;;;3.40;1.20;;;;;;;;;;5026943;28;20052;-72
2022/10/16 12:15:02;;;;;;;9.63;0.90;;;;;;;;;;5056329;28;20632;-73
2022/10/16 12:17:35;;;;;;;6.72;1.38;;;;;;;;;;5069116;28;20818;-73
2022/10/16 12:20:21;;;;;;;4.05;1.15;;;;;;;;;;5047588;28;20142;-73
2022/10/16 12:22:49;;;;;;;3.80;1.25;;;;;;;;;;5061976;28;20975;-73
2022/10/16 12:25:22;;;;;;;3.45;1.25;;;;;;;;;;5058607;28;20024;-73
2022/10/16 12:27:53;;;;;;;2.95;1.00;;;;;;;;;;5074546;28;20024;-73
2022/10/16 12:30:21;;;;;;;3.70;1.33;;;;;;;;;;5037501;28;20103;-73
2022/10/16 12:32:52;;;;;;;3.60;1.08;;;;;;;;;;5070418;28;20025;-72
2022/10/16 12:35:26;;;;;;;3.78;1.27;;;;;;;;;;5039185;28;20027;-73
2022/10/16 12:37:52;;;;;;;2.63;0.83;;;;;;;;;;5033922;28;20040;-73
2022/10/16 12:40:29;;;;;;;2.80;1.05;;;;;;;;;;5025098;28;20282;-73
2022/10/16 12:42:55;;;;;;;2.20;1.10;;;;;;;;;;5055733;28;20012;-72
2022/10/16 12:45:31;;;;;;;3.40;1.42;;;;;;;;;;5034090;28;20360;-73
2022/10/16 12:47:56;;;;;;;3.95;1.20;;;;;;;;;;5039225;28;20077;-71
2022/10/16 12:50:33;;;;;;;2.72;0.93;;;;;;;;;;5045372;28;20020;-72
2022/10/16 12:52:59;;;;;;;3.25;1.13;;;;;;;;;;5031310;28;20061;-72
2022/10/16 12:55:24;;;;;;;2.38;1.00;;;;;;;;;;5021610;28;20029;-72
2022/10/16 12:57:49;;;;;;;4.20;1.13;;;;;;;;;;5036121;28;20021;-72
2022/10/16 13:00:21;;;;;;;8.43;1.47;;;;;;;;;;5010189;28;20028;-72
2022/10/16 13:02:47;;;;;;;4.18;1.20;;;;;;;;;;5038723;28;20035;-72
2022/10/16 13:05:15;;;;;;;6.53;1.13;;;;;;;;;;5053413;28;20037;-72
2022/10/16 13:07:47;;;;;;;6.13;0.90;;;;;;;;;;5030860;28;20546;-72
2022/10/16 13:10:28;;;;;;;3.92;1.00;;;;;;;;;;5048055;28;20031;-72
2022/10/16 13:12:53;;;;;;;3.58;1.75;;;;;;;;;;5050800;28;20020;-72
2022/10/16 13:15:35;;;;;;;3.73;1.33;;;;;;;;;;5032569;28;20044;-72
2022/10/16 13:18:18;;;;;;;2.40;0.93;;;;;;;;;;5046411;28;20346;-72
2022/10/16 13:20:50;;;;;;;3.33;1.20;;;;;;;;;;5051536;28;20086;-67
2022/10/16 13:23:24;;;;;;;5.93;1.05;;;;;;;;;;5049547;28;20102;-72
2022/10/16 13:25:49;;;;;;;;;;;;;;;;;;5027465;28;20111;-72
2022/10/16 13:28:16;;;;;;;5.35;0.95;;;;;;;;;;5059060;28;19920;-72
2022/10/16 13:30:51;;;;;;;2.55;0.95;;;;;;;;;;5029340;28;20017;-72
2022/10/16 13:33:19;;;;;;;5.13;1.40;;;;;;;;;;5072134;28;20037;-72
2022/10/16 13:36:04;;;;;;;4.15;0.90;;;;;;;;;;5053167;28;20052;-72
2022/10/16 13:38:33;;;;;;;2.72;0.88;;;;;;;;;;5074003;28;20040;-72
2022/10/16 13:41:03;;;;;;;2.65;1.00;;;;;;;;;;5046554;28;20031;-73
2022/10/16 13:43:35;;;;;;;4.93;0.82;;;;;;;;;;5041626;28;20017;-72
2022/10/16 13:46:00;;;;;;;3.55;1.52;;;;;;;;;;5057869;28;20052;-72
2022/10/16 13:48:26;;;;;;;3.58;1.33;;;;;;;;;;5071144;28;20070;-70
2022/10/16 13:51:00;;;;;;;6.78;1.38;;;;;;;;;;5070337;28;20424;-68
2022/10/16 13:53:25;;;;;;;3.35;1.17;;;;;;;;;;5070508;28;20023;-67
2022/10/16 13:55:51;;;;;;;2.30;0.80;;;;;;;;;;5068533;28;20021;-66
2022/10/16 13:58:16;;;;;;;3.55;0.93;;;;;;;;;;5072994;28;20021;-68
2022/10/16 14:00:52;;;;;;;5.28;0.77;;;;;;;;;;5054721;28;20051;-71
2022/10/16 14:03:19;;;;;;;2.22;0.70;;;;;;;;;;5072740;28;20042;-69
2022/10/16 14:05:59;;;;;;;2.22;1.00;;;;;;;;;;5073791;28;20024;-67
2022/10/16 14:08:25;;;;;;;10.70;1.60;;;;;;;;;;5073874;28;20101;-68
2022/10/16 14:10:53;;;;;;;1.85;0.63;;;;;;;;;;5056169;28;20017;-72
2022/10/16 14:13:20;;;;;;;3.10;0.93;;;;;;;;;;5072487;28;20379;-69
2022/10/16 14:15:51;;;;;;;3.65;1.38;;;;;;;;;;5057732;28;20019;-67
2022/10/16 14:18:24;;;;;;;3.33;0.98;;;;;;;;;;5055138;28;20502;-67
2022/10/16 14:20:50;;;;;;;9.13;1.25;;;;;;;;;;5074738;28;20021;-68
2022/10/16 14:23:18;;;;;;;4.35;1.40;;;;;;;;;;5074982;28;20482;-73
2022/10/16 14:25:44;;;;;;;1.58;0.63;;;;;;;;;;5062874;28;20039;-73
2022/10/16 14:28:18;;;;;;;2.75;0.90;;;;;;;;;;5074687;28;20443;-73
2022/10/16 14:30:51;;;;;;;3.42;1.05;;;;;;;;;;5057193;28;20047;-73
2022/10/16 14:33:22;;;;;;;10.20;1.77;;;;;;;;;;5042717;28;20103;-74
2022/10/16 14:35:58;;;;;;;8.63;1.70;;;;;;;;;;5056505;28;20016;-73
2022/10/16 14:38:24;;;;;;;2.22;0.75;;;;;;;;;;5069165;28;20383;-73
2022/10/16 14:40:50;;;;;;;6.25;1.80;;;;;;;;;;5055273;28;20017;-73
2022/10/16 14:43:19;;;;;;;6.07;1.30;;;;;;;;;;5073759;28;20093;-73
2022/10/16 14:45:51;;;;;;;16.38;1.90;;;;;;;;;;5070275;28;20023;-73
2022/10/16 14:48:17;;;;;;;6.13;1.33;;;;;;;;;;5075431;28;20225;-73
2022/10/16 14:50:43;;;;;;;6.10;1.10;;;;;;;;;;5086551;28;20081;-73